Impacts METAR Board
IDs:

KCLL - College Station/East, TX, US

Updated at: 1300 UTC 16 Jul 2019
Potential Impact None Slight Moderate High
Time 16/01Z 16/02Z 16/03Z 16/04Z 16/05Z 16/06Z 16/07Z 16/08Z 16/09Z 16/10Z 16/11Z 16/12Z 16/13Z
Temp87 84 84 84 83 82 80 80 80 79 79 79 80
Dewpt76 77 78 77 77 77 77 77 77 77 77 78 78
Altim29.88 29.89 29.90 29.92 29.94 29.95 29.96 29.95 29.96 29.97 29.98 29.99 30.01
VIS10 10 10 10 10 10 10 10 10 10 10 8 7
CIG-- -- -- -- -- -- 14 -- -- 9 17 4 4
CoverFEWSCTCLRCLRCLRCLRBKNCLRSCTBKNOVCOVCOVC
FltCatVFRVFRVFRVFRVFRVFRMVFRVFRVFRIFRMVFRLIFRLIFR
WX--------------------------
WDir130120150170170180170180180180180180190
WSpd7 10 9 9 10 9 7 6 8 5 5 4 4
WGst-- -- -- -- -- -- -- -- -- -- -- -- --
Raw hourly METARs
KCLL 160053Z 13007KT 10SM FEW070 31/24 A2988 RMK AO2 SLP114 T03060244
KCLL 160153Z 12010KT 10SM SCT055 29/25 A2989 RMK AO2 SLP114 T02890250
KCLL 160253Z AUTO 15009KT 10SM CLR 29/26 A2990 RMK AO2 SLP119 T02890256 53007
KCLL 160353Z AUTO 17009KT 10SM CLR 29/25 A2992 RMK AO2 SLP127 T02890250
KCLL 160453Z AUTO 17010KT 10SM CLR 28/25 A2994 RMK AO2 SLP132 T02830250
KCLL 160553Z AUTO 18009KT 10SM CLR 28/25 A2995 RMK AO2 SLP137 T02780250 10322 20278 403500256 51018
KCLL 160703Z AUTO 17007KT 10SM BKN014 27/25 A2996 RMK AO2 T02670250
KCLL 160753Z AUTO 18006KT 10SM CLR 27/25 A2995 RMK AO2 SLP137 T02670250
KCLL 160853Z AUTO 18008KT 10SM FEW014 SCT019 27/25 A2996 RMK AO2 SLP140 T02670250 51002
KCLL 161004Z AUTO 18005KT 10SM BKN009 BKN018 26/25 A2997 RMK AO2 T02610250
KCLL 161100Z AUTO 18005KT 10SM SCT009 OVC017 26/25 A2998 RMK AO2 T02610250
KCLL 161153Z AUTO 18004KT 8SM OVC004 26/26 A2999 RMK AO2 SLP150 T02610256 10278 20261 51010
KCLL 161253Z 19004KT 7SM OVC004 27/26 A3001 RMK AO2 SLP156 T02670256